createdAt,value
2023-05-14T00:00:34.999Z,10.78
2023-05-14T00:03:37.516Z,10.67
2023-05-14T00:06:39.311Z,10.55
2023-05-14T00:09:40.785Z,10.39
2023-05-14T00:12:42.263Z,10.66
2023-05-14T00:15:44.434Z,10.99
2023-05-14T00:18:45.982Z,11.09
2023-05-14T00:21:48.101Z,10.98
2023-05-14T00:24:49.576Z,10.67
2023-05-14T00:27:51.007Z,10.47
2023-05-14T00:30:52.439Z,10.44
2023-05-14T00:33:53.866Z,10.43
2023-05-14T00:36:55.329Z,10.42
2023-05-14T00:39:56.947Z,10.54
2023-05-14T00:42:58.361Z,10.55
2023-05-14T00:46:00.764Z,10.33
2023-05-14T00:49:02.328Z,10.67
2023-05-14T00:52:04.121Z,10.80
2023-05-14T00:55:06.573Z,11.01
2023-05-14T00:58:11.254Z,11.08
2023-05-14T01:01:15.107Z,11.14
2023-05-14T01:04:16.983Z,10.83
2023-05-14T01:07:34.639Z,10.86
2023-05-14T01:11:03.855Z,10.75
2023-05-14T01:14:31.285Z,10.44
2023-05-14T01:17:35.995Z,10.52
2023-05-14T01:20:37.504Z,10.72
2023-05-14T01:23:38.911Z,10.81
2023-05-14T01:26:40.947Z,10.76
2023-05-14T01:29:49.600Z,10.78
2023-05-14T01:32:54.817Z,10.64
2023-05-14T01:35:56.471Z,10.69
2023-05-14T01:38:59.395Z,10.62
2023-05-14T01:42:02.035Z,10.48
2023-05-14T01:45:03.975Z,10.50
2023-05-14T01:48:06.140Z,10.39
2023-05-14T01:51:07.588Z,10.02
2023-05-14T01:54:09.024Z,10.32
2023-05-14T01:57:10.417Z,10.49
2023-05-14T02:00:12.317Z,10.58
2023-05-14T02:03:17.036Z,10.59
2023-05-14T02:06:20.880Z,9.81
2023-05-14T02:09:24.240Z,9.38
2023-05-14T02:12:26.191Z,9.29
2023-05-14T02:15:27.684Z,9.71
2023-05-14T02:18:29.154Z,9.75
2023-05-14T02:21:30.749Z,9.44
2023-05-14T02:24:32.173Z,9.55
2023-05-14T02:27:33.898Z,9.64
2023-05-14T02:30:35.305Z,9.51
2023-05-14T02:33:36.747Z,9.79
2023-05-14T02:36:38.961Z,10.09
2023-05-14T02:39:40.424Z,9.93
2023-05-14T02:42:41.878Z,10.28
2023-05-14T02:45:43.491Z,10.44
2023-05-14T02:48:45.320Z,10.44
2023-05-14T02:51:46.783Z,10.21
2023-05-14T02:54:48.164Z,9.92
2023-05-14T02:57:49.936Z,9.61
2023-05-14T03:00:51.456Z,9.44
2023-05-14T03:03:53.196Z,9.28
2023-05-14T03:06:54.608Z,9.35
2023-05-14T03:09:56.389Z,9.47
2023-05-14T03:12:57.957Z,9.35
2023-05-14T03:15:59.414Z,9.38
2023-05-14T03:19:00.945Z,9.76
2023-05-14T03:22:02.668Z,9.50
2023-05-14T03:25:04.481Z,9.34
2023-05-14T03:28:05.945Z,9.35
2023-05-14T03:31:07.768Z,9.37
2023-05-14T03:34:09.331Z,9.36
2023-05-14T03:37:11.064Z,9.35
2023-05-14T03:40:12.673Z,9.41
2023-05-14T03:43:14.247Z,9.47
2023-05-14T03:46:16.197Z,9.47
2023-05-14T03:49:17.725Z,9.49
2023-05-14T03:52:19.263Z,9.56
2023-05-14T03:55:21.347Z,9.67
2023-05-14T03:58:22.768Z,9.82
2023-05-14T04:01:24.290Z,9.88
2023-05-14T04:04:25.858Z,9.79
2023-05-14T04:07:27.305Z,9.86
2023-05-14T04:10:28.896Z,9.74
2023-05-14T04:13:30.443Z,9.76
2023-05-14T04:16:31.993Z,9.84
2023-05-14T04:19:33.533Z,9.72
2023-05-14T04:22:35.003Z,9.73
2023-05-14T04:25:36.541Z,9.75
2023-05-14T04:28:37.920Z,9.65
2023-05-14T04:31:39.660Z,9.70
2023-05-14T04:34:41.475Z,9.64
2023-05-14T04:37:42.892Z,9.72
2023-05-14T04:40:44.412Z,9.78
2023-05-14T04:43:47.058Z,9.83
2023-05-14T04:46:48.524Z,9.81
2023-05-14T04:49:49.978Z,9.78
2023-05-14T04:52:51.542Z,9.74
2023-05-14T04:55:53.962Z,9.70
2023-05-14T04:58:55.456Z,9.75
2023-05-14T05:01:57.222Z,9.78
2023-05-14T05:04:58.658Z,9.70
2023-05-14T05:08:00.133Z,9.72
2023-05-14T05:11:01.590Z,9.84
2023-05-14T05:14:03.127Z,9.79
2023-05-14T05:17:04.839Z,9.72
2023-05-14T05:20:09.542Z,9.72
2023-05-14T05:23:11.247Z,9.70
2023-05-14T05:26:12.715Z,9.71
2023-05-14T05:29:14.150Z,9.81
2023-05-14T05:32:15.863Z,9.77
2023-05-14T05:35:17.338Z,9.86
2023-05-14T05:38:18.765Z,9.82
2023-05-14T05:41:20.436Z,9.88
2023-05-14T05:44:21.819Z,10.04
2023-05-14T05:47:23.393Z,10.10
2023-05-14T05:50:26.409Z,9.98
2023-05-14T05:53:27.874Z,9.90
2023-05-14T05:56:29.270Z,9.86
2023-05-14T05:59:30.877Z,10.06
2023-05-14T06:02:32.656Z,10.12
2023-05-14T06:05:34.403Z,10.04
2023-05-14T06:08:35.886Z,9.92
2023-05-14T06:11:37.279Z,10.07
2023-05-14T06:14:38.688Z,10.14
2023-05-14T06:17:40.227Z,10.25
2023-05-14T06:20:41.807Z,10.28
2023-05-14T06:23:43.264Z,10.33
2023-05-14T06:26:44.769Z,10.19
2023-05-14T06:29:46.176Z,10.16
2023-05-14T06:32:47.592Z,10.05
2023-05-14T06:35:49.043Z,10.07
2023-05-14T06:38:50.486Z,10.03
2023-05-14T06:41:51.909Z,10.10
2023-05-14T06:44:53.436Z,10.22
2023-05-14T06:47:55.456Z,10.17
2023-05-14T06:50:56.995Z,10.26
2023-05-14T06:53:58.420Z,10.22
2023-05-14T06:56:59.946Z,10.21
2023-05-14T07:00:03.188Z,10.27
2023-05-14T07:03:05.313Z,10.36
2023-05-14T07:06:06.957Z,10.18
2023-05-14T07:09:08.380Z,10.32
2023-05-14T07:12:09.832Z,10.20
2023-05-14T07:15:12.167Z,10.33
2023-05-14T07:18:13.614Z,10.48
2023-05-14T07:21:15.188Z,10.76
2023-05-14T07:24:16.595Z,10.73
2023-05-14T07:27:18.168Z,10.83
2023-05-14T07:30:19.639Z,10.76
2023-05-14T07:33:21.458Z,10.80
2023-05-14T07:36:23.032Z,11.12
2023-05-14T07:39:24.452Z,11.05
2023-05-14T07:42:35.800Z,10.95
2023-05-14T07:45:41.581Z,10.97
2023-05-14T07:48:43.111Z,10.97
2023-05-14T07:51:44.651Z,11.32
2023-05-14T07:54:46.031Z,11.41
2023-05-14T07:57:47.470Z,11.42
2023-05-14T08:00:48.968Z,11.23
2023-05-14T08:03:50.747Z,11.46
2023-05-14T08:06:52.262Z,11.34
2023-05-14T08:09:53.744Z,11.68
2023-05-14T08:12:55.618Z,11.52
2023-05-14T08:15:57.085Z,11.62
2023-05-14T08:18:58.531Z,11.59
2023-05-14T08:21:59.947Z,11.90
2023-05-14T08:25:03.381Z,11.67
2023-05-14T08:28:04.997Z,12.14
2023-05-14T08:31:06.565Z,12.15
2023-05-14T08:34:08.044Z,12.38
2023-05-14T08:37:09.580Z,12.28
2023-05-14T08:40:12.250Z,12.17
2023-05-14T08:43:19.936Z,12.25
2023-05-14T08:46:23.922Z,12.49
2023-05-14T08:49:32.328Z,12.55
2023-05-14T08:52:34.957Z,12.75
2023-05-14T08:55:37.553Z,12.62
2023-05-14T08:58:39.055Z,12.73
2023-05-14T09:01:47.519Z,12.63
2023-05-14T09:04:54.170Z,13.19
2023-05-14T09:07:55.782Z,13.26
2023-05-14T09:10:57.239Z,13.47
2023-05-14T09:13:58.740Z,13.39
2023-05-14T09:17:00.272Z,13.46
2023-05-14T09:20:01.963Z,13.05
2023-05-14T09:23:03.467Z,13.34
2023-05-14T09:26:05.995Z,13.50
2023-05-14T09:29:07.750Z,13.75
2023-05-14T09:32:10.782Z,14.06
2023-05-14T09:35:19.603Z,14.33
2023-05-14T09:38:21.032Z,13.80
2023-05-14T09:41:22.985Z,13.98
2023-05-14T09:44:25.387Z,14.05
2023-05-14T09:47:26.929Z,14.01
2023-05-14T09:50:28.586Z,14.13
2023-05-14T09:53:30.556Z,14.37
2023-05-14T09:56:36.316Z,14.29
2023-05-14T09:59:37.904Z,14.44
2023-05-14T10:02:42.229Z,14.30
2023-05-14T10:05:44.939Z,14.31
2023-05-14T10:08:48.466Z,14.54
2023-05-14T10:11:54.111Z,14.65
2023-05-14T10:15:01.245Z,14.49
2023-05-14T10:18:10.132Z,14.45
2023-05-14T10:21:12.916Z,14.41
2023-05-14T10:24:14.892Z,14.31
2023-05-14T10:27:17.337Z,13.95
2023-05-14T10:30:22.956Z,14.33
2023-05-14T10:33:24.622Z,14.24
2023-05-14T10:36:26.074Z,14.56
2023-05-14T10:39:53.743Z,14.52
2023-05-14T10:42:59.116Z,14.57
2023-05-14T10:46:00.993Z,14.77
2023-05-14T10:49:02.781Z,14.75
2023-05-14T10:52:07.251Z,14.88
2023-05-14T10:55:10.239Z,15.33
2023-05-14T10:58:12.141Z,15.18
2023-05-14T11:01:13.904Z,15.34
2023-05-14T11:04:19.335Z,15.06
2023-05-14T11:07:27.830Z,14.82
2023-05-14T11:10:30.125Z,14.90
2023-05-14T11:13:32.178Z,14.95
2023-05-14T11:16:34.066Z,15.02
2023-05-14T11:19:36.020Z,14.89
2023-05-14T11:22:39.745Z,14.76
2023-05-14T11:25:41.627Z,14.76
2023-05-14T11:28:44.463Z,15.38
2023-05-14T11:31:46.137Z,15.58
2023-05-14T11:34:47.792Z,15.64
2023-05-14T11:37:53.752Z,15.47
2023-05-14T11:40:56.426Z,15.24
2023-05-14T11:43:58.484Z,15.68
2023-05-14T11:47:01.930Z,15.95
2023-05-14T11:50:03.598Z,15.93
2023-05-14T11:53:05.026Z,16.13
2023-05-14T11:56:08.902Z,15.75
2023-05-14T11:59:11.819Z,16.15
2023-05-14T12:02:15.400Z,16.05
2023-05-14T12:05:16.904Z,16.54
2023-05-14T12:08:37.554Z,16.76
2023-05-14T12:11:38.971Z,17.29
2023-05-14T12:14:42.723Z,17.18
2023-05-14T12:17:51.805Z,16.46
2023-05-14T12:20:53.962Z,16.37
2023-05-14T12:23:59.918Z,16.09
2023-05-14T12:27:02.395Z,15.77
2023-05-14T12:30:20.470Z,15.65
2023-05-14T12:33:23.832Z,15.74
2023-05-14T12:36:25.559Z,15.85
2023-05-14T12:39:26.970Z,15.83
2023-05-14T12:42:28.394Z,15.93
2023-05-14T12:45:30.550Z,16.00
2023-05-14T12:48:31.988Z,15.86
2023-05-14T12:51:33.870Z,16.17
2023-05-14T12:54:35.398Z,16.20
2023-05-14T12:57:38.775Z,16.42
2023-05-14T13:00:40.698Z,16.63
2023-05-14T13:03:42.214Z,16.35
2023-05-14T13:06:43.800Z,16.50
2023-05-14T13:09:45.302Z,16.40
2023-05-14T13:12:46.772Z,16.43
2023-05-14T13:15:48.568Z,16.45
2023-05-14T13:18:50.074Z,16.30
2023-05-14T13:21:51.546Z,16.33
2023-05-14T13:24:53.056Z,16.40
2023-05-14T13:27:54.998Z,16.49
2023-05-14T13:31:08.439Z,16.48
2023-05-14T13:34:10.246Z,16.91
2023-05-14T13:37:11.751Z,16.98
2023-05-14T13:40:13.412Z,17.11
2023-05-14T13:43:16.803Z,17.44
2023-05-14T13:46:18.271Z,17.43
2023-05-14T13:49:19.804Z,17.08
2023-05-14T13:52:21.672Z,17.06
2023-05-14T13:55:23.277Z,16.86
2023-05-14T13:58:25.760Z,16.69
2023-05-14T14:01:27.378Z,16.48
2023-05-14T14:04:29.017Z,16.55
2023-05-14T14:07:30.569Z,16.43
2023-05-14T14:10:32.070Z,16.44
2023-05-14T14:13:33.567Z,16.10
2023-05-14T14:16:35.126Z,16.31
2023-05-14T14:19:36.699Z,16.22
2023-05-14T14:22:38.179Z,16.36
2023-05-14T14:25:39.862Z,16.32
2023-05-14T14:28:41.448Z,16.22
2023-05-14T14:31:43.722Z,16.16
2023-05-14T14:34:45.225Z,16.12
2023-05-14T14:37:50.752Z,16.23
2023-05-14T14:40:52.240Z,16.16
2023-05-14T14:43:53.888Z,16.01
2023-05-14T14:46:55.343Z,16.11
2023-05-14T14:49:57.206Z,15.88
2023-05-14T14:52:58.613Z,15.88
2023-05-14T14:56:03.208Z,15.83
2023-05-14T14:59:04.645Z,15.77
2023-05-14T15:02:06.515Z,16.22
2023-05-14T15:05:08.377Z,16.78
2023-05-14T15:08:10.369Z,17.42
2023-05-14T15:11:11.898Z,17.62
2023-05-14T15:14:13.365Z,17.71
2023-05-14T15:17:14.860Z,17.09
2023-05-14T15:20:16.384Z,17.51
2023-05-14T15:23:18.115Z,17.50
2023-05-14T15:26:19.518Z,17.50
2023-05-14T15:29:21.310Z,17.51
2023-05-14T15:32:22.801Z,17.43
2023-05-14T15:35:24.415Z,16.73
2023-05-14T15:38:26.275Z,16.18
2023-05-14T15:41:28.654Z,15.97
2023-05-14T15:44:30.208Z,16.46
2023-05-14T15:47:32.069Z,16.30
2023-05-14T15:50:33.614Z,16.03
2023-05-14T15:53:35.127Z,15.99
2023-05-14T15:56:36.546Z,16.10
2023-05-14T15:59:37.992Z,15.96
2023-05-14T16:02:39.999Z,15.91
2023-05-14T16:05:42.661Z,16.02
2023-05-14T16:08:44.153Z,15.27
2023-05-14T16:11:45.657Z,15.31
2023-05-14T16:14:47.223Z,15.05
2023-05-14T16:17:48.737Z,14.81
2023-05-14T16:20:50.174Z,14.79
2023-05-14T16:23:51.636Z,14.52
2023-05-14T16:26:53.237Z,14.41
2023-05-14T16:29:54.642Z,14.37
2023-05-14T16:32:56.110Z,14.39
2023-05-14T16:35:57.577Z,14.51
2023-05-14T16:39:07.112Z,14.60
2023-05-14T16:42:09.242Z,14.94
2023-05-14T16:45:11.235Z,14.92
2023-05-14T16:48:12.673Z,14.89
2023-05-14T16:51:14.440Z,14.84
2023-05-14T16:54:16.107Z,14.97
2023-05-14T16:57:17.514Z,14.92
2023-05-14T17:00:19.009Z,14.85
2023-05-14T17:03:20.521Z,14.76
2023-05-14T17:06:21.900Z,14.67
2023-05-14T17:09:23.623Z,14.69
2023-05-14T17:12:26.314Z,14.72
2023-05-14T17:15:28.030Z,14.83
2023-05-14T17:18:29.879Z,15.00
2023-05-14T17:21:31.438Z,15.03
2023-05-14T17:24:32.986Z,15.07
2023-05-14T17:27:34.513Z,15.05
2023-05-14T17:30:35.955Z,15.09
2023-05-14T17:33:37.439Z,15.06
2023-05-14T17:36:39.448Z,15.00
2023-05-14T17:39:40.917Z,14.95
2023-05-14T17:42:43.477Z,14.91
2023-05-14T17:45:54.003Z,14.86
2023-05-14T17:48:58.113Z,14.88
2023-05-14T17:51:59.508Z,14.84
2023-05-14T17:55:00.983Z,14.75
2023-05-14T17:58:02.455Z,14.64
2023-05-14T18:01:04.584Z,14.53
2023-05-14T18:04:06.263Z,14.48
2023-05-14T18:07:08.421Z,14.35
2023-05-14T18:10:10.103Z,14.30
2023-05-14T18:13:11.646Z,14.30
2023-05-14T18:16:13.276Z,14.25
2023-05-14T18:19:14.954Z,14.05
2023-05-14T18:22:16.520Z,13.95
2023-05-14T18:25:18.100Z,13.87
2023-05-14T18:28:21.268Z,13.75
2023-05-14T18:31:22.876Z,13.70
2023-05-14T18:34:24.562Z,13.66
2023-05-14T18:37:26.170Z,13.77
2023-05-14T18:40:27.682Z,13.60
2023-05-14T18:43:29.203Z,13.59
2023-05-14T18:46:31.073Z,13.58
2023-05-14T18:49:32.658Z,13.51
2023-05-14T18:52:34.481Z,13.37
2023-05-14T18:55:36.879Z,13.42
2023-05-14T18:58:38.489Z,13.21
2023-05-14T19:01:40.014Z,13.18
2023-05-14T19:04:51.646Z,12.99
2023-05-14T19:07:53.627Z,12.99
2023-05-14T19:10:55.182Z,12.85
2023-05-14T19:13:56.957Z,12.94
2023-05-14T19:16:58.871Z,12.93
2023-05-14T19:20:00.387Z,12.93
2023-05-14T19:23:01.979Z,12.82
2023-05-14T19:26:04.040Z,12.30
2023-05-14T19:29:06.006Z,11.73
2023-05-14T19:32:07.905Z,11.80
2023-05-14T19:35:09.652Z,11.95
2023-05-14T19:38:11.253Z,12.30
2023-05-14T19:41:12.938Z,12.39
2023-05-14T19:44:14.555Z,12.25
2023-05-14T19:47:16.255Z,12.03
2023-05-14T19:50:17.960Z,11.49
2023-05-14T19:53:19.531Z,11.24
2023-05-14T19:56:21.626Z,11.39
2023-05-14T19:59:23.720Z,11.39
2023-05-14T20:02:25.444Z,11.26
2023-05-14T20:05:29.912Z,11.21
2023-05-14T20:08:31.755Z,11.19
2023-05-14T20:11:33.410Z,11.13
2023-05-14T20:14:35.047Z,10.81
2023-05-14T20:17:38.307Z,11.01
2023-05-14T20:20:40.023Z,11.17
2023-05-14T20:23:41.511Z,11.18
2023-05-14T20:26:43.191Z,11.24
2023-05-14T20:29:46.569Z,11.12
2023-05-14T20:32:48.097Z,11.26
2023-05-14T20:35:49.913Z,11.38
2023-05-14T20:38:52.750Z,11.20
2023-05-14T20:41:54.279Z,11.52
2023-05-14T20:44:55.930Z,11.63
2023-05-14T20:47:57.506Z,11.26
2023-05-14T20:50:58.983Z,11.48
2023-05-14T20:54:00.736Z,11.60
2023-05-14T20:57:02.229Z,11.41
2023-05-14T21:00:08.013Z,11.29
2023-05-14T21:03:09.853Z,11.17
2023-05-14T21:06:11.567Z,10.88
2023-05-14T21:09:12.983Z,10.82
2023-05-14T21:12:14.367Z,10.56
2023-05-14T21:15:15.908Z,10.73
2023-05-14T21:18:17.409Z,10.86
2023-05-14T21:21:18.862Z,10.87
2023-05-14T21:24:20.433Z,11.06
2023-05-14T21:27:22.283Z,11.08
2023-05-14T21:30:23.732Z,11.07
2023-05-14T21:33:25.252Z,10.93
2023-05-14T21:36:27.001Z,10.82
2023-05-14T21:39:28.497Z,10.72
2023-05-14T21:42:29.897Z,10.72
2023-05-14T21:45:31.343Z,10.29
2023-05-14T21:48:33.016Z,10.12
2023-05-14T21:51:34.627Z,10.14
2023-05-14T21:54:36.094Z,10.50
2023-05-14T21:57:37.575Z,10.83
2023-05-14T22:00:38.978Z,10.47
2023-05-14T22:03:40.481Z,10.39
2023-05-14T22:06:42.158Z,10.65
2023-05-14T22:09:43.623Z,10.84
2023-05-14T22:12:45.797Z,10.95
2023-05-14T22:15:47.421Z,10.85
2023-05-14T22:18:49.717Z,10.56
2023-05-14T22:21:51.128Z,10.80
2023-05-14T22:24:52.536Z,10.86
2023-05-14T22:27:53.983Z,10.48
2023-05-14T22:30:56.452Z,9.62
2023-05-14T22:33:57.968Z,10.00
2023-05-14T22:37:00.224Z,10.68
2023-05-14T22:40:04.597Z,10.69
2023-05-14T22:43:05.986Z,10.34
2023-05-14T22:46:07.478Z,10.29
2023-05-14T22:49:08.887Z,10.63
2023-05-14T22:52:10.368Z,9.73
2023-05-14T22:55:11.786Z,10.22
2023-05-14T22:58:13.245Z,10.62
2023-05-14T23:01:14.769Z,9.93
2023-05-14T23:04:16.199Z,9.45
2023-05-14T23:07:17.622Z,9.45
2023-05-14T23:10:19.156Z,10.15
2023-05-14T23:13:20.624Z,10.34
2023-05-14T23:16:22.051Z,10.59
2023-05-14T23:19:23.516Z,10.60
2023-05-14T23:22:25.070Z,10.40
2023-05-14T23:25:26.586Z,10.41
2023-05-14T23:28:28.174Z,9.99
2023-05-14T23:31:29.928Z,10.43
2023-05-14T23:34:31.359Z,10.16
2023-05-14T23:37:33.618Z,10.49
2023-05-14T23:40:35.183Z,9.83
2023-05-14T23:43:36.883Z,9.98
2023-05-14T23:46:38.457Z,10.40
2023-05-14T23:49:40.722Z,10.21
2023-05-14T23:52:42.170Z,9.01
2023-05-14T23:55:43.704Z,9.19
2023-05-14T23:58:45.111Z,9.83
